Landels-Hill Big Creek Reserve Entrance, California Weather observations

Data are for 10 minute period ending at time listed.
 Day   Time   Solar   Ave.   Ave.  Ave.  Vector  Max.   Baro.   Total    
  of    of     Rad.   Air    Rel.  Wind   Wind   Wind  Press.  Precip.   
Year   Day            Temp.  Hum.  Speed  Dir.   Gust                    
2016   (PST)  Kw/m2    F      %     mph   deg.    mph    mb.     in.     
-------------------------------------------------------------------------
 146   16:10   0.14   58.5    72    3.8   102     8.8   1016.8    0.00 
 146   16:20   0.11   58.4    72    3.0    82     9.5   1016.7    0.00 
 146   16:30   0.13   58.4    72    3.2    77    10.2   1016.7    0.00 
 146   16:40   0.16   58.9    72    3.0   117     9.7   1016.7    0.00 
 146   16:50   0.16   59.4    71    2.8   160     7.5   1016.8    0.00 
 146   17:00   0.10   58.9    73    3.9   143    13.0   1016.8    0.00 
 146   17:10   0.10   58.2    74    4.3    88    11.8   1016.7    0.00 
 146   17:20   0.10   58.2    75    3.5   107     9.6   1016.7    0.00 
 146   17:30   0.10   58.2    74    3.1   102     7.2   1016.6    0.00 
 146   17:40   0.10   58.1    74    4.4    44    14.8   1016.6    0.00 
 146   17:50   0.06   58.1    74    2.5    73     9.2   1016.5    0.00 
 146   18:00   0.05   57.7    75    5.0    59    14.9   1016.5    0.00 
 146   18:10   0.04   57.8    75    4.8    66    11.1   1016.5    0.00 
 146   18:20   0.05   57.9    74    3.7    66     8.9   1016.5    0.00 
 146   18:30   0.04   57.9    74    2.9    71     7.4   1016.4    0.00 
 146   18:40   0.03   58.0    74    2.7    60     6.9   1016.5    0.00 
 146   18:50   0.03   58.2    74    3.3    64     8.6   1016.6    0.00 
 146   19:00   0.01   58.0    74    3.4    50     6.5   1016.6    0.00 
 146   19:10   0.01   57.8    74    1.8    41     4.7   1016.6    0.00 
 146   19:20   0.01   57.2    76    1.0    35     2.2   1016.6    0.00 
 146   19:30   0.00   56.2    78    0.9    36     1.8   1016.6    0.00 
 146   19:40   0.00   55.4    80    1.1    23     3.1   1016.7    0.00 
 146   19:50   0.00   54.7    82    1.1    41     2.9   1016.8    0.00 
 146   20:00   0.00   54.2    84    1.2    66     3.3   1016.9    0.00 
 146   20:10   0.00   54.0    84    1.4    54     3.4   1017.0    0.00 
 146   20:20   0.00   53.6    85    1.3    61     3.2   1017.0    0.00 
 146   20:30   0.00   53.2    85    1.6    54     3.7   1017.1    0.00 
 146   20:40   0.00   52.8    86    1.7    53     3.1   1017.1    0.00 
 146   20:50   0.00   52.6    86    2.2    41     3.9   1017.1    0.00 
 146   21:00   0.00   52.3    86    1.4    26     3.9   1017.0    0.00 
 146   21:10   0.00   52.0    87    1.9    54     4.6   1017.0    0.00 
 146   21:20   0.00   51.8    87    1.9    48     4.4   1017.0    0.00 
 146   21:30   0.00   51.5    88    2.5    47     6.0   1017.1    0.00 
 146   21:40   0.00   51.3    88    1.7    54     4.2   1017.1    0.00 
 146   21:50   0.00   51.2    88    2.2    36     4.3   1017.1    0.00 
 146   22:00   0.00   51.0    88    1.8    30     4.5   1017.1    0.00 
 146   22:10   0.00   50.7    89    3.1    22     5.6   1017.1    0.00 
 146   22:20   0.00   50.9    89    1.8    52     4.5   1017.1    0.00 
 146   22:30   0.00   50.5    89    2.1    26     6.1   1016.9    0.00 
 146   22:40   0.00   50.4    89    2.5    32     6.0   1016.8    0.00 
 146   22:50   0.00   50.3    89    1.9    17     4.7   1016.8    0.00 
 146   23:00   0.00   50.0    90    2.4    35     5.8   1016.8    0.00 
 146   23:10   0.00   49.8    90    2.6    46     6.3   1016.8    0.00 
 146   23:20   0.00   49.8    90    2.3    55     4.9   1016.8    0.00 
 146   23:30   0.00   49.7    90    2.6    52     6.0   1016.7    0.00 
 146   23:40   0.00   49.5    90    2.4    46     5.4   1016.6    0.00 
 146   23:50   0.00   49.3    91    2.1    63     4.3   1016.4    0.00 
 147    0:00   0.00   49.3    91    2.8    52     6.0   1016.5    0.00 
 147    0:10   0.00   49.3    90    2.4    30     5.3   1016.4    0.00 
 147    0:20   0.00   48.9    90    2.3    43     4.6   1016.4    0.00 
 147    0:30   0.00   48.9    91    2.1    54     4.2   1016.3    0.00 
 147    0:40   0.00   48.8    91    2.1    60     4.4   1016.2    0.00 
 147    0:50   0.00   48.7    91    2.1    47     5.1   1016.1    0.00 
 147    1:00   0.00   48.5    91    2.7    50     5.2   1016.0    0.00 
 147    1:10   0.00   48.3    91    2.3    46     4.4   1015.9    0.00 
 147    1:20   0.00   48.3    91    2.1    71     5.0   1015.8    0.00 
 147    1:30   0.00   48.3    91    2.6    37     5.1   1015.8    0.00 
 147    1:40   0.00   48.2    91    2.8    43     5.7   1015.7    0.00 
 147    1:50   0.00   47.9    91    2.8    61     5.1   1015.7    0.00 
 147    2:00   0.00   47.9    91    2.5    53     4.8   1015.6    0.00 
 147    2:10   0.00   47.8    91    2.8    47     5.7   1015.6    0.00 
 147    2:20   0.00   47.7    91    2.7    30     5.3   1015.6    0.00 
 147    2:30   0.00   47.5    91    2.5    48     5.9   1015.5    0.00 
 147    2:40   0.00   47.5    91    2.6    62     6.4   1015.5    0.00 
 147    2:50   0.00   47.4    91    2.7    55     5.6   1015.5    0.00 
 147    3:00   0.00   47.3    91    2.7    57     5.3   1015.5    0.00 
 147    3:10   0.00   47.3    91    2.7    57     5.7   1015.5    0.00 
 147    3:20   0.00   47.3    91    2.7    50     5.8   1015.6    0.00 
 147    3:30   0.00   47.2    91    2.7    48     5.8   1015.5    0.00 
 147    3:40   0.00   47.0    91    2.6    40     6.3   1015.3    0.00 
 147    3:50   0.00   47.0    92    2.3    62     4.5   1015.2    0.00 
 147    4:00   0.00   47.1    92    2.8    58     6.0   1015.2    0.00 
 147    4:10   0.00   47.1    92    3.1    45     7.8   1015.1    0.00 
 147    4:20   0.00   47.0    91    2.8    25     5.4   1015.3    0.00 
 147    4:30   0.00   46.9    91    3.2    50     6.0   1015.4    0.00 
 147    4:40   0.00   47.0    91    3.0    33     6.2   1015.5    0.00 
 147    4:50   0.00   46.9    91    2.9    21     6.2   1015.7    0.00 
 147    5:00   0.01   47.1    91    3.0    46     5.4   1015.7    0.00 
 147    5:10   0.01   47.3    91    2.3    49     5.3   1015.7    0.00 
 147    5:20   0.01   47.4    91    2.5    61     5.0   1015.9    0.00 
 147    5:30   0.01   47.6    91    2.7    47     6.0   1016.0    0.00 
 147    5:40   0.01   47.5    91    2.7    19     5.7   1016.1    0.00 
 147    5:50   0.02   47.5    91    1.9    51     4.7   1016.2    0.00 
 147    6:00   0.03   47.7    91    2.1    57     4.5   1016.2    0.00 
 147    6:10   0.02   47.9    91    2.0    51     4.7   1016.2    0.00 
 147    6:20   0.03   48.1    90    2.3    42     4.7   1016.4    0.00 
 147    6:30   0.03   48.2    90    1.7    40     3.1   1016.6    0.00 
 147    6:40   0.04   48.4    90    1.7    32     4.5   1016.6    0.00 
 147    6:50   0.03   48.9    90    1.1     5     3.4   1016.6    0.00 
 147    7:00   0.03   49.2    90    1.3    16     3.2   1016.6    0.00 
 147    7:10   0.03   49.6    90    0.6     4     1.7   1016.6    0.00 
 147    7:20   0.03   49.7    90    0.5     2     1.8   1016.5    0.00 
 147    7:30   0.03   49.9    90    0.2     9     0.9   1016.5    0.00 
 147    7:40   0.03   50.0    91    0.1    13     0.6   1016.6    0.00 
 147    7:50   0.04   50.7    91    0.1    48     0.9   1016.6    0.00 
 147    8:00   0.05   52.0    91    0.9   289     3.9   1016.7    0.00 
 147    8:10   0.07   52.9    89    1.8   270     5.0   1016.7    0.00 
 147    8:20   0.04   53.5    87    2.0   277     5.0   1016.7    0.00 
 147    8:30   0.04   54.0    85    1.7   295     5.7   1016.7    0.00 
 147    8:40   0.04   54.3    84    0.8    66     3.6   1016.7    0.00 
 147    8:50   0.05   54.6    82    0.9    47     2.9   1016.7    0.00 
 147    9:00   0.35   54.7    82    1.6   120     3.7   1016.7    0.00 
 147    9:10   0.62   56.0    80    1.3   116     4.2   1016.6    0.00 
 147    9:20   0.68   58.3    74    1.6   242     4.5   1016.4    0.00 
 147    9:30   0.70   58.5    74    1.7   240     4.4   1016.3    0.00 
 147    9:40   0.73   59.1    72    1.9   226     3.9   1016.5    0.00 
 147    9:50   0.75   59.3    72    1.4   219     3.3   1016.6    0.00 
 147   10:00   0.78   59.7    70    1.8   211     3.9   1016.8    0.00 
 147   10:10   0.79   59.8    70    1.8   190     5.4   1016.8    0.00 
 147   10:20   0.81   60.7    68    2.2   176     5.6   1016.9    0.00 
 147   10:30   0.72   58.5    72    4.4   110    11.7   1016.9    0.00 
 147   10:40   0.76   59.1    72    2.8    33     7.8   1016.7    0.00 
 147   10:50   0.90   60.9    68    2.6   355     8.8   1016.7    0.00 
 147   11:00   0.88   61.2    68    3.4     1    10.7   1016.7    0.00 
 147   11:10   0.90   61.0    68    3.7   174    12.8   1016.8    0.00 
 147   11:20   0.89   58.8    72    7.4   159    14.5   1016.7    0.00 
 147   11:30   0.90   58.7    73    5.3   126    20.3   1016.5    0.00 
 147   11:40   0.97   60.4    69    4.6   172    13.2   1016.5    0.00 
 147   11:50   0.98   59.4    72    6.8   166    16.3   1016.6    0.00 
 147   12:00   0.89   59.0    73    6.6   163    12.8   1016.4    0.00 
 147   12:10   0.95   59.2    72    6.7   149    15.3   1016.2    0.00 
 147   12:20   0.93   59.4    72    7.6   150    16.5   1016.1    0.00 
 147   12:30   0.92   59.6    72    7.5   175    20.1   1015.9    0.00 
 147   12:40   0.94   59.1    73    8.5   167    19.1   1015.8    0.00 
 147   12:50   0.94   59.0    73    9.3   165    17.5   1015.7    0.00 
 147   13:00   0.93   59.0    73    9.3   170    20.5   1015.7    0.00 
 147   13:10   0.96   59.1    73    8.7   161    20.1   1015.7    0.00 
 147   13:20   0.94   59.1    73    8.8   165    22.6   1015.6    0.00 
 147   13:30   0.85   59.2    73    7.9   174    14.6   1015.7    0.00 
 147   13:40   0.93   58.7    74    8.0   167    16.0   1015.7    0.00 
 147   13:50   0.86   59.3    73    7.5   162    16.9   1015.6    0.00 
 147   14:00   0.81   59.6    73    6.5   181    14.6   1015.7    0.00 
 147   14:10   0.80   59.7    72    8.0   172    16.0   1015.6    0.00 
 147   14:20   0.82   60.5    70    5.1   160    12.6   1015.4    0.00 
 147   14:30   0.83   60.2    70    5.6    69    16.9   1015.4    0.00 
 147   14:40   0.75   59.8    71    5.3   164    18.2   1015.5    0.00 
 147   14:50   0.70   59.2    72    6.5   168    14.8   1015.4    0.00 
 147   15:00   0.74   59.6    71    5.7   138    15.1   1015.2    0.00 
 147   15:10   0.65   60.4    70    3.9   174    10.0   1015.2    0.00 
 147   15:20   0.61   60.0    70    4.5   120    14.1   1015.2    0.00 
 147   15:30   0.66   59.8    71    3.9    88    11.7   1015.1    0.00 
 147   15:40   0.57   59.4    72    4.0    62    13.7   1015.1    0.00 
 147   15:50   0.30   58.9    73    4.8    56     9.3   1015.0    0.00 
 147   16:00   0.28   57.8    75    5.2    71    12.1   1014.7    0.00 

Return to Big Creek Reserve Entrance graphs page.


Western Regional Climate Center,wrcc@dri.edu